createdAt,value
2022-10-07T00:02:15.076Z,4.00
2022-10-07T00:05:02.998Z,4.00
2022-10-07T00:07:51.476Z,4.00
2022-10-07T00:10:40.405Z,3.90
2022-10-07T00:13:28.660Z,3.90
2022-10-07T00:16:20.343Z,3.80
2022-10-07T00:19:08.977Z,3.80
2022-10-07T00:21:56.401Z,3.80
2022-10-07T00:24:44.131Z,3.80
2022-10-07T00:27:31.408Z,3.80
2022-10-07T00:30:19.064Z,3.80
2022-10-07T00:33:08.135Z,3.90
2022-10-07T00:35:55.698Z,3.90
2022-10-07T00:38:43.219Z,3.90
2022-10-07T00:41:32.793Z,3.80
2022-10-07T00:44:33.986Z,3.80
2022-10-07T00:47:25.411Z,3.80
2022-10-07T00:50:16.213Z,3.80
2022-10-07T00:53:03.969Z,3.70
2022-10-07T00:55:51.522Z,3.80
2022-10-07T00:58:41.031Z,3.70
2022-10-07T01:01:29.112Z,3.70
2022-10-07T01:04:17.367Z,3.70
2022-10-07T01:07:05.962Z,3.70
2022-10-07T01:09:55.296Z,3.70
2022-10-07T01:12:52.918Z,3.70
2022-10-07T01:15:46.657Z,3.70
2022-10-07T01:18:38.681Z,3.70
2022-10-07T01:21:33.787Z,3.60
2022-10-07T01:24:27.134Z,3.60
2022-10-07T01:27:16.537Z,3.60
2022-10-07T01:30:05.897Z,3.50
2022-10-07T01:32:55.985Z,3.50
2022-10-07T01:35:44.990Z,3.40
2022-10-07T01:38:34.055Z,3.40
2022-10-07T01:41:23.249Z,3.40
2022-10-07T01:44:13.692Z,3.40
2022-10-07T01:47:01.395Z,3.30
2022-10-07T01:49:48.615Z,3.30
2022-10-07T01:52:43.427Z,3.30
2022-10-07T01:55:37.155Z,3.20
2022-10-07T01:58:32.374Z,3.20
2022-10-07T02:01:24.038Z,3.20
2022-10-07T02:04:21.465Z,3.20
2022-10-07T02:07:17.014Z,3.10
2022-10-07T02:10:08.896Z,3.10
2022-10-07T02:13:01.102Z,3.10
2022-10-07T02:15:54.643Z,3.00
2022-10-07T02:18:48.465Z,3.00
2022-10-07T02:21:37.193Z,3.00
2022-10-07T02:24:29.083Z,3.00
2022-10-07T02:27:20.924Z,3.00
2022-10-07T02:30:13.260Z,2.90
2022-10-07T02:33:04.018Z,2.90
2022-10-07T02:35:54.841Z,2.90
2022-10-07T02:38:42.467Z,2.80
2022-10-07T02:41:35.409Z,2.80
2022-10-07T02:44:31.175Z,2.80
2022-10-07T02:47:23.536Z,2.80
2022-10-07T02:50:12.953Z,2.70
2022-10-07T02:53:03.881Z,2.70
2022-10-07T02:55:52.081Z,2.70
2022-10-07T02:58:42.652Z,2.70
2022-10-07T03:01:31.868Z,2.60
2022-10-07T03:04:19.306Z,2.60
2022-10-07T03:07:06.566Z,2.60
2022-10-07T03:09:55.882Z,2.60
2022-10-07T03:12:44.198Z,2.50
2022-10-07T03:15:32.913Z,2.50
2022-10-07T03:18:29.769Z,2.50
2022-10-07T03:21:27.096Z,2.40
2022-10-07T03:24:16.204Z,2.40
2022-10-07T03:27:09.207Z,2.40
2022-10-07T03:29:59.583Z,2.40
2022-10-07T03:32:47.744Z,2.40
2022-10-07T03:35:35.575Z,2.30
2022-10-07T03:38:23.789Z,2.30
2022-10-07T03:41:11.697Z,2.30
2022-10-07T03:44:01.608Z,2.20
2022-10-07T03:46:51.334Z,2.30
2022-10-07T03:49:41.652Z,2.20
2022-10-07T03:52:30.466Z,2.20
2022-10-07T03:55:18.186Z,2.20
2022-10-07T03:58:05.844Z,2.10
2022-10-07T04:01:05.861Z,2.10
2022-10-07T04:03:54.790Z,2.10
2022-10-07T04:06:43.801Z,2.10
2022-10-07T04:09:34.119Z,2.10
2022-10-07T04:12:22.674Z,2.10
2022-10-07T04:15:13.789Z,2.10
2022-10-07T04:18:04.939Z,2.10
2022-10-07T04:20:52.850Z,2.00
2022-10-07T04:23:42.885Z,2.00
2022-10-07T04:26:30.526Z,2.00
2022-10-07T04:29:18.315Z,2.00
2022-10-07T04:32:08.030Z,2.00
2022-10-07T04:34:57.385Z,1.90
2022-10-07T04:37:45.606Z,1.90
2022-10-07T04:40:33.299Z,1.90
2022-10-07T04:43:27.410Z,2.00
2022-10-07T04:46:22.668Z,1.90
2022-10-07T04:49:16.133Z,2.00
2022-10-07T04:52:05.058Z,2.00
2022-10-07T04:54:57.854Z,2.00
2022-10-07T04:57:45.781Z,2.00
2022-10-07T05:00:34.636Z,2.00
2022-10-07T05:03:24.542Z,2.10
2022-10-07T05:06:12.393Z,2.10
2022-10-07T05:09:03.319Z,2.20
2022-10-07T05:11:55.685Z,2.20
2022-10-07T05:14:44.531Z,2.30
2022-10-07T05:17:33.940Z,2.40
2022-10-07T05:20:21.681Z,2.50
2022-10-07T05:23:09.633Z,2.60
2022-10-07T05:26:04.938Z,2.70
2022-10-07T05:28:54.928Z,2.70
2022-10-07T05:31:49.267Z,2.80
2022-10-07T05:34:39.861Z,2.90
2022-10-07T05:37:27.615Z,2.90
2022-10-07T05:40:15.091Z,3.00
2022-10-07T05:43:04.013Z,3.10
2022-10-07T05:45:58.344Z,3.10
2022-10-07T05:48:46.905Z,3.20
2022-10-07T05:51:34.403Z,3.30
2022-10-07T05:54:22.526Z,3.40
2022-10-07T05:57:09.793Z,3.50
2022-10-07T05:59:59.128Z,3.60
2022-10-07T06:02:47.296Z,3.60
2022-10-07T06:05:35.316Z,3.80
2022-10-07T06:08:23.614Z,3.90
2022-10-07T06:11:35.761Z,4.00
2022-10-07T06:14:23.230Z,4.10
2022-10-07T06:17:12.437Z,4.20
2022-10-07T06:20:02.201Z,4.30
2022-10-07T06:22:50.241Z,4.40
2022-10-07T06:25:39.813Z,4.50
2022-10-07T06:28:30.670Z,4.70
2022-10-07T06:31:22.306Z,4.80
2022-10-07T06:34:11.395Z,4.90
2022-10-07T06:36:59.092Z,5.00
2022-10-07T06:39:47.644Z,5.10
2022-10-07T06:42:35.530Z,5.30
2022-10-07T06:45:43.703Z,5.40
2022-10-07T06:48:34.568Z,5.50
2022-10-07T06:51:24.835Z,5.70
2022-10-07T06:54:13.549Z,5.90
2022-10-07T06:57:01.265Z,6.10
2022-10-07T06:59:50.039Z,6.20
2022-10-07T07:02:38.653Z,6.30
2022-10-07T07:05:26.816Z,6.50
2022-10-07T07:08:17.400Z,6.70
2022-10-07T07:11:26.583Z,6.80
2022-10-07T07:14:15.854Z,7.00
2022-10-07T07:17:09.806Z,7.20
2022-10-07T07:19:58.121Z,7.30
2022-10-07T07:22:46.261Z,7.50
2022-10-07T07:25:39.585Z,7.60
2022-10-07T07:28:27.350Z,7.70
2022-10-07T07:31:17.794Z,7.90
2022-10-07T07:34:07.342Z,8.10
2022-10-07T07:36:55.492Z,8.30
2022-10-07T07:39:47.304Z,8.40
2022-10-07T07:42:38.884Z,8.60
2022-10-07T07:45:27.143Z,8.90
2022-10-07T07:48:15.351Z,9.10
2022-10-07T07:51:06.972Z,9.40
2022-10-07T07:53:54.827Z,9.70
2022-10-07T07:56:43.530Z,9.90
2022-10-07T07:59:33.372Z,10.10
2022-10-07T08:02:21.853Z,10.30
2022-10-07T08:05:10.928Z,10.50
2022-10-07T08:07:58.681Z,10.60
2022-10-07T08:10:51.761Z,10.80
2022-10-07T08:13:41.402Z,10.90
2022-10-07T08:16:32.979Z,11.10
2022-10-07T08:19:21.720Z,11.20
2022-10-07T08:22:09.935Z,11.40
2022-10-07T08:25:00.107Z,11.60
2022-10-07T08:27:48.630Z,11.80
2022-10-07T08:30:37.155Z,12.00
2022-10-07T08:33:26.470Z,12.30
2022-10-07T08:36:15.940Z,12.50
2022-10-07T08:39:05.883Z,12.60
2022-10-07T08:42:04.271Z,12.80
2022-10-07T08:44:52.557Z,12.90
2022-10-07T08:47:43.908Z,13.10
2022-10-07T08:50:43.437Z,13.30
2022-10-07T08:53:34.500Z,13.40
2022-10-07T08:56:25.045Z,13.60
2022-10-07T08:59:17.475Z,13.80
2022-10-07T09:02:12.427Z,14.00
2022-10-07T09:05:05.869Z,14.20
2022-10-07T09:07:55.958Z,14.40
2022-10-07T09:10:44.157Z,14.60
2022-10-07T09:13:33.708Z,14.70
2022-10-07T09:16:31.468Z,14.80
2022-10-07T09:19:21.863Z,15.00
2022-10-07T09:22:13.214Z,15.10
2022-10-07T09:25:10.532Z,15.10
2022-10-07T09:27:59.341Z,15.10
2022-10-07T09:30:46.684Z,15.10
2022-10-07T09:33:41.067Z,15.30
2022-10-07T09:36:28.674Z,15.60
2022-10-07T09:39:23.638Z,15.80
2022-10-07T09:42:27.116Z,16.10
2022-10-07T09:45:22.447Z,16.30
2022-10-07T09:48:20.364Z,16.50
2022-10-07T09:51:18.781Z,16.70
2022-10-07T09:54:09.794Z,16.80
2022-10-07T09:56:59.590Z,17.10
2022-10-07T09:59:49.114Z,17.30
2022-10-07T10:02:37.192Z,17.60
2022-10-07T10:05:28.780Z,17.80
2022-10-07T10:08:24.801Z,17.80
2022-10-07T10:11:28.285Z,18.00
2022-10-07T10:14:34.916Z,18.00
2022-10-07T10:17:28.789Z,18.20
2022-10-07T10:20:29.760Z,18.30
2022-10-07T10:23:30.955Z,18.50
2022-10-07T10:26:44.608Z,18.70
2022-10-07T10:29:54.725Z,19.00
2022-10-07T10:33:07.233Z,19.30
2022-10-07T10:36:03.827Z,19.40
2022-10-07T10:39:01.550Z,19.50
2022-10-07T10:41:54.612Z,19.60
2022-10-07T10:45:08.101Z,19.80
2022-10-07T10:48:15.896Z,19.90
2022-10-07T10:51:21.384Z,19.90
2022-10-07T10:54:25.108Z,19.60
2022-10-07T10:57:22.950Z,19.50
2022-10-07T11:00:14.448Z,19.50
2022-10-07T11:03:45.647Z,19.60
2022-10-07T11:06:37.046Z,20.00
2022-10-07T11:09:33.088Z,20.50
2022-10-07T11:12:26.260Z,20.90
2022-10-07T11:15:21.234Z,21.20
2022-10-07T11:18:21.842Z,21.30
2022-10-07T11:21:17.223Z,21.10
2022-10-07T11:24:13.821Z,21.20
2022-10-07T11:27:08.990Z,21.00
2022-10-07T11:30:03.966Z,20.90
2022-10-07T11:32:57.289Z,21.00
2022-10-07T11:35:50.415Z,21.10
2022-10-07T11:38:40.672Z,21.10
2022-10-07T11:41:33.141Z,21.00
2022-10-07T11:44:27.885Z,21.00
2022-10-07T11:47:20.843Z,21.10
2022-10-07T11:50:14.279Z,21.20
2022-10-07T11:53:06.040Z,21.40
2022-10-07T11:56:02.517Z,21.60
2022-10-07T11:59:00.465Z,21.80
2022-10-07T12:01:53.648Z,21.80
2022-10-07T12:04:41.240Z,21.90
2022-10-07T12:07:41.620Z,22.00
2022-10-07T12:10:33.825Z,22.00
2022-10-07T12:13:41.005Z,22.00
2022-10-07T12:16:55.606Z,22.10
2022-10-07T12:19:43.661Z,22.10
2022-10-07T12:22:31.133Z,22.00
2022-10-07T12:25:33.199Z,22.10
2022-10-07T12:28:25.803Z,22.20
2022-10-07T12:31:47.427Z,22.40
2022-10-07T12:34:38.021Z,22.60
2022-10-07T12:37:50.149Z,22.90
2022-10-07T12:40:39.027Z,22.90
2022-10-07T12:43:34.538Z,22.80
2022-10-07T12:46:24.762Z,22.80
2022-10-07T12:49:24.312Z,22.70
2022-10-07T12:52:15.297Z,22.70
2022-10-07T12:55:07.366Z,22.70
2022-10-07T12:58:17.231Z,22.90
2022-10-07T13:01:19.338Z,23.00
2022-10-07T13:04:29.673Z,23.00
2022-10-07T13:07:59.614Z,23.00
2022-10-07T13:11:28.504Z,23.20
2022-10-07T13:14:22.083Z,23.10
2022-10-07T13:17:26.623Z,23.20
2022-10-07T13:20:48.675Z,23.20
2022-10-07T13:23:37.832Z,23.20
2022-10-07T13:26:27.580Z,23.20
2022-10-07T13:29:24.528Z,23.20
2022-10-07T13:32:16.367Z,23.10
2022-10-07T13:35:29.983Z,23.10
2022-10-07T13:38:25.966Z,23.10
2022-10-07T13:41:21.577Z,23.20
2022-10-07T13:44:11.495Z,23.20
2022-10-07T13:47:01.424Z,23.40
2022-10-07T13:49:54.160Z,23.50
2022-10-07T13:52:47.192Z,23.60
2022-10-07T13:55:36.669Z,23.70
2022-10-07T13:58:24.520Z,23.70
2022-10-07T14:01:13.507Z,23.70
2022-10-07T14:04:18.711Z,23.70
2022-10-07T14:07:16.916Z,23.70
2022-10-07T14:10:11.157Z,23.70
2022-10-07T14:13:03.207Z,23.70
2022-10-07T14:15:55.359Z,23.70
2022-10-07T14:18:44.984Z,23.60
2022-10-07T14:21:40.595Z,23.70
2022-10-07T14:24:28.272Z,23.80
2022-10-07T14:27:52.601Z,23.80
2022-10-07T14:30:59.602Z,23.90
2022-10-07T14:34:08.836Z,23.90
2022-10-07T14:37:04.432Z,24.00
2022-10-07T14:39:53.344Z,23.90
2022-10-07T14:42:43.128Z,23.90
2022-10-07T14:45:31.167Z,23.90
2022-10-07T14:48:18.925Z,23.80
2022-10-07T14:51:07.446Z,23.70
2022-10-07T14:53:58.084Z,23.50
2022-10-07T14:56:45.525Z,23.40
2022-10-07T14:59:35.546Z,23.40
2022-10-07T15:02:23.465Z,23.20
2022-10-07T15:05:12.751Z,22.80
2022-10-07T15:08:01.192Z,22.20
2022-10-07T15:10:48.804Z,21.60
2022-10-07T15:13:36.355Z,21.00
2022-10-07T15:16:28.919Z,20.60
2022-10-07T15:19:16.856Z,20.10
2022-10-07T15:22:04.404Z,19.80
2022-10-07T15:24:52.297Z,19.50
2022-10-07T15:27:40.263Z,19.30
2022-10-07T15:30:28.353Z,19.10
2022-10-07T15:33:17.418Z,18.90
2022-10-07T15:36:05.566Z,18.60
2022-10-07T15:38:53.338Z,18.50
2022-10-07T15:41:42.863Z,18.30
2022-10-07T15:44:30.434Z,18.00
2022-10-07T15:47:18.990Z,17.90
2022-10-07T15:50:08.860Z,17.60
2022-10-07T15:52:56.362Z,17.50
2022-10-07T15:55:50.445Z,17.20
2022-10-07T15:58:37.861Z,17.00
2022-10-07T16:01:28.315Z,16.80
2022-10-07T16:04:16.123Z,16.60
2022-10-07T16:07:05.552Z,16.50
2022-10-07T16:09:53.608Z,16.30
2022-10-07T16:12:41.100Z,16.10
2022-10-07T16:15:28.780Z,15.90
2022-10-07T16:18:16.471Z,15.80
2022-10-07T16:21:06.122Z,15.60
2022-10-07T16:23:57.876Z,15.40
2022-10-07T16:26:47.317Z,15.20
2022-10-07T16:29:52.777Z,15.00
2022-10-07T16:32:40.395Z,14.90
2022-10-07T16:35:31.384Z,14.70
2022-10-07T16:38:21.306Z,14.50
2022-10-07T16:41:10.610Z,14.40
2022-10-07T16:43:58.713Z,14.20
2022-10-07T16:46:47.217Z,14.10
2022-10-07T16:49:36.519Z,14.00
2022-10-07T16:52:25.618Z,13.90
2022-10-07T16:55:13.245Z,13.80
2022-10-07T16:58:02.200Z,13.70
2022-10-07T17:00:49.821Z,13.50
2022-10-07T17:03:38.287Z,13.40
2022-10-07T17:06:28.104Z,13.30
2022-10-07T17:09:17.458Z,13.30
2022-10-07T17:12:07.066Z,13.20
2022-10-07T17:14:56.014Z,13.10
2022-10-07T17:17:43.995Z,13.00
2022-10-07T17:20:31.969Z,12.90
2022-10-07T17:23:21.263Z,12.90
2022-10-07T17:26:09.642Z,12.80
2022-10-07T17:29:00.446Z,12.70
2022-10-07T17:31:50.851Z,12.70
2022-10-07T17:34:44.511Z,12.60
2022-10-07T17:37:34.336Z,12.60
2022-10-07T17:40:22.088Z,12.50
2022-10-07T17:43:10.060Z,12.50
2022-10-07T17:46:01.636Z,12.50
2022-10-07T17:48:52.718Z,12.40
2022-10-07T17:51:42.591Z,12.30
2022-10-07T17:54:30.532Z,12.30
2022-10-07T17:57:18.494Z,12.20
2022-10-07T18:00:07.666Z,12.20
2022-10-07T18:03:07.503Z,12.20
2022-10-07T18:05:56.855Z,12.20
2022-10-07T18:08:45.029Z,12.20
2022-10-07T18:11:50.592Z,12.20
2022-10-07T18:14:55.918Z,12.20
2022-10-07T18:17:45.544Z,12.20
2022-10-07T18:20:38.319Z,12.20
2022-10-07T18:23:29.437Z,12.20
2022-10-07T18:26:17.396Z,12.20
2022-10-07T18:29:05.358Z,12.10
2022-10-07T18:31:53.100Z,12.20
2022-10-07T18:34:40.986Z,12.20
2022-10-07T18:37:28.822Z,12.20
2022-10-07T18:40:17.951Z,12.20
2022-10-07T18:43:05.517Z,12.20
2022-10-07T18:45:59.691Z,12.30
2022-10-07T18:48:48.915Z,12.30
2022-10-07T18:51:36.527Z,12.40
2022-10-07T18:54:24.258Z,12.40
2022-10-07T18:57:14.008Z,12.50
2022-10-07T19:00:01.914Z,12.50
2022-10-07T19:02:51.466Z,12.50
2022-10-07T19:05:39.411Z,12.60
2022-10-07T19:08:27.048Z,12.60
2022-10-07T19:11:16.709Z,12.70
2022-10-07T19:14:04.706Z,12.70
2022-10-07T19:16:52.048Z,12.70
2022-10-07T19:19:41.322Z,12.70
2022-10-07T19:22:28.573Z,12.70
2022-10-07T19:25:33.106Z,12.70
2022-10-07T19:28:21.548Z,12.70
2022-10-07T19:31:14.954Z,12.70
2022-10-07T19:34:04.081Z,12.70
2022-10-07T19:36:51.975Z,12.70
2022-10-07T19:39:39.791Z,12.70
2022-10-07T19:42:28.689Z,12.70
2022-10-07T19:45:16.307Z,12.70
2022-10-07T19:48:06.362Z,12.70
2022-10-07T19:51:00.638Z,12.70
2022-10-07T19:53:48.974Z,12.70
2022-10-07T19:56:37.421Z,12.70
2022-10-07T19:59:25.335Z,12.70
2022-10-07T20:02:15.005Z,12.70
2022-10-07T20:05:06.055Z,12.70
2022-10-07T20:07:53.537Z,12.80
2022-10-07T20:10:41.577Z,12.80
2022-10-07T20:13:29.735Z,12.90
2022-10-07T20:16:19.970Z,12.90
2022-10-07T20:19:12.203Z,12.90
2022-10-07T20:22:01.961Z,13.00
2022-10-07T20:24:49.854Z,13.00
2022-10-07T20:27:37.741Z,13.00
2022-10-07T20:30:25.417Z,13.10
2022-10-07T20:33:13.308Z,13.10
2022-10-07T20:36:03.996Z,13.10
2022-10-07T20:39:14.523Z,13.20
2022-10-07T20:42:25.674Z,13.20
2022-10-07T20:45:13.780Z,13.20
2022-10-07T20:48:01.482Z,13.20
2022-10-07T20:50:49.360Z,13.10
2022-10-07T20:53:37.022Z,13.10
2022-10-07T20:56:26.009Z,13.10
2022-10-07T20:59:14.250Z,13.10
2022-10-07T21:02:06.066Z,13.10
2022-10-07T21:04:56.196Z,13.10
2022-10-07T21:07:43.740Z,13.10
2022-10-07T21:10:32.704Z,13.10
2022-10-07T21:13:21.916Z,13.10
2022-10-07T21:16:09.723Z,13.10
2022-10-07T21:18:58.644Z,13.20
2022-10-07T21:21:46.858Z,13.20
2022-10-07T21:24:35.347Z,13.20
2022-10-07T21:27:23.045Z,13.20
2022-10-07T21:30:15.451Z,13.20
2022-10-07T21:33:04.619Z,13.20
2022-10-07T21:35:52.146Z,13.30
2022-10-07T21:38:40.482Z,13.30
2022-10-07T21:41:31.116Z,13.30
2022-10-07T21:44:18.441Z,13.30
2022-10-07T21:47:07.073Z,13.30
2022-10-07T21:49:56.934Z,13.30
2022-10-07T21:52:44.937Z,13.30
2022-10-07T21:55:36.389Z,13.30
2022-10-07T21:58:26.593Z,13.30
2022-10-07T22:01:15.078Z,13.30
2022-10-07T22:04:04.224Z,13.30
2022-10-07T22:07:09.126Z,13.40
2022-10-07T22:09:56.361Z,13.40
2022-10-07T22:12:44.993Z,13.40
2022-10-07T22:15:36.842Z,13.50
2022-10-07T22:18:24.449Z,13.50
2022-10-07T22:21:14.336Z,13.60
2022-10-07T22:24:02.955Z,13.60
2022-10-07T22:26:51.431Z,13.60
2022-10-07T22:29:39.173Z,13.70
2022-10-07T22:32:26.579Z,13.80
2022-10-07T22:35:33.561Z,13.80
2022-10-07T22:38:24.387Z,13.80
2022-10-07T22:41:12.856Z,13.80
2022-10-07T22:44:01.145Z,13.80
2022-10-07T22:46:48.697Z,13.80
2022-10-07T22:49:35.977Z,13.80
2022-10-07T22:52:23.280Z,13.80
2022-10-07T22:55:12.012Z,13.80
2022-10-07T22:58:02.148Z,13.80
2022-10-07T23:00:50.703Z,13.70
2022-10-07T23:03:39.581Z,13.70
2022-10-07T23:06:26.942Z,13.60
2022-10-07T23:09:14.522Z,13.50
2022-10-07T23:12:05.893Z,13.40
2022-10-07T23:14:54.593Z,13.30
2022-10-07T23:17:42.016Z,13.20
2022-10-07T23:20:29.382Z,13.00
2022-10-07T23:23:17.088Z,12.90
2022-10-07T23:26:05.462Z,12.80
2022-10-07T23:28:55.221Z,12.70
2022-10-07T23:31:42.434Z,12.60
2022-10-07T23:34:29.946Z,12.60
2022-10-07T23:37:17.319Z,12.50
2022-10-07T23:40:05.127Z,12.50
2022-10-07T23:42:54.378Z,12.50
2022-10-07T23:45:45.919Z,12.50
2022-10-07T23:48:34.676Z,12.50
2022-10-07T23:51:24.138Z,12.50
2022-10-07T23:54:11.387Z,12.60
2022-10-07T23:56:59.271Z,12.60
2022-10-07T23:59:46.587Z,12.60
